Regionale Übersicht

METAR und TAF

Montag, 17. Juni 2019 - 18:46 Uhr

Beobachtete horizontale meteorologische Sicht an ausgewählten Flughäfen. Die vollständigen METARs und Flugwettervorhersagen (TAFs) sind verfügbar, wenn Sie auf das entsprechende Symbol mit der ICAO-Flughafenkennung klicken.

  • Luxemburg (ELLX)

    Taf: TAF ELLX 171100Z 1712/1818 09005KT 9999 SCT045 BECMG 1810/1812 17005KT=

    Metar: METAR ELLX 171620Z 07005KT 340V130 CAVOK 25/10 Q1018 NOSIG=

  • Spangdahlem (ETAD)

    Taf: TAF ETAD 171200Z 1712/1818 03003KT 9999 SCT030 QNH3010INS BECMG 1801/1802 01003KT 9999 SCT025 BKN035 QNH3002INS BECMG 1810/1811 17006KT 9999 SCT025 QNH2999INS TX22/1714Z TN08/1803Z=

    Metar: nil

  • Metz/Nancy (LFJL)

    Taf: TAF LFJL 171100Z 1712/1812 09010KT 9999 FEW050 BECMG 1720/1723 VRB03KT=

    Metar: nil

  • Saarbrücken/Intl (EDDR)

    Taf: TAF EDDR 171100Z 1712/1812 09008KT 9999 FEW040 BECMG 1808/1811 17005KT=

    Metar: nil

  • Hahn (EDFH)

    Taf: TAF EDFH 171100Z 1712/1812 12007KT 9999 FEW040=

    Metar: nil

  • Ramstein (ETAR)

    Taf: TAF ETAR 171002Z 1710/1816 VRB06KT 9999 FEW050 QNH2993INS TX25/1715Z TN07/1802Z=

    Metar: nil

  • Nancy/Ochey (LFSO)

    Taf: TAF LFSO 171400Z 1715/1815 12005KT CAVOK=

    Metar: nil

  • Liège Bierset (EBLG)

    Taf: TAF EBLG 171110Z 1712/1818 VRB03KT CAVOK=

    Metar: nil

  • Saint-Dizier (LFSI)

    Taf: TAF LFSI 171400Z 1715/1815 10005KT CAVOK PROB30 TEMPO 1801/1807 0600 FG VV///=

    Metar: nil

  • Maastricht/Zuid Limburg (EHBK)

    Taf: TAF EHBK 171100Z 1712/1818 16004KT CAVOK=

    Metar: nil

  • Köln/Köln-Bonn (EDDK)

    Taf: TAF EDDK 171100Z 1712/1818 VRB02KT CAVOK TEMPO 1712/1718 12006KT BECMG 1807/1809 14006KT=

    Metar: METAR EDDK 171620Z 13005KT CAVOK 25/12 Q1017 NOSIG=

  • Charleroi (EBCI)

    Taf: TAF EBCI 171110Z 1712/1818 19005KT CAVOK=

    Metar: nil

  • Wiesbaden (ETOU)

    Taf: TAF AMD ETOU 171440Z 1714/1817 VRB06KT 9999 FEW050 QNH3008INS BECMG 1722/1723 VRB06KT 9999 SCT050 BKN060 QNH3007INS BECMG 1808/1809 VRB06KT 9999 SCT040 QNH3002INS TX26/1715Z TN10/1802Z=

    Metar: nil

  • Karlsruhe/Baden-Baden (EDSB)

    Taf: TAF EDSB 171100Z 1712/1812 02012KT 9999 FEW040 BECMG 1718/1720 03005KT=

    Metar: nil

  • Chalons/Vatry (LFOK)

    Taf: TAF LFOK 171100Z 1712/1812 VRB03KT CAVOK=

    Metar: nil

  • Brüssel (EBBR)

    Taf: TAF EBBR 171110Z 1712/1818 19005KT CAVOK=

    Metar: METAR EBBR 171620Z VRB02KT CAVOK 25/12 Q1018 NOSIG=

  • Düsseldorf (EDDL)

    Taf: TAF EDDL 171100Z 1712/1818 14005KT CAVOK BECMG 1715/1718 VRB03KT BECMG 1806/1809 18005KT BECMG 1812/1815 30005KT=

    Metar: nil

  • Luxeuil (LFSX)

    Taf: TAF LFSX 171400Z 1715/1815 28005KT CAVOK=

    Metar: nil

  • Eindhoven (EHEH)

    Taf: TAF EHEH 171110Z 1712/1818 20005KT CAVOK BECMG 1718/1720 VRB03KT PROB30 1800/1804 4000 BR MIFG PROB30 TEMPO 1812/1818 4000 SHRA SCT040CB=

    Metar: nil

  • Niederrhein (EDLV)

    Taf: TAF EDLV 171100Z 1712/1812 VRB03KT CAVOK TEMPO 1712/1717 16006KT=

    Metar: nil

  • Dortmund/Wickede (EDLW)

    Taf: TAF EDLW 171100Z 1712/1812 12005KT CAVOK BECMG 1808/1811 22005KT=

    Metar: nil

  • Stuttgart/Echterdingen (EDDS)

    Taf: TAF EDDS 171100Z 1712/1812 07007KT 9999 FEW040 BECMG 1719/1721 VRB03KT BECMG 1807/1810 07005KT=

    Metar: METAR EDDS 171620Z 08005KT 040V100 9999 FEW048 24/13 Q1017 NOSIG=

  • Basel-Mühlhausen (LFSB)

    Taf: TAF LFSB 171100Z 1712/1812 36008KT 9999 FEW040 BECMG 1718/1721 VRB03KT PROB30 TEMPO 1802/1805 4000 MIFG=

    Metar: METAR LFSB 171630Z 36007KT 9999 FEW050 SCT260 26/15 Q1016 NOSIG=

  • Lille (LFQQ)

    Taf: TAF LFQQ 171100Z 1712/1818 19007KT 9999 SCT040 TEMPO 1816/1818 4000 SHRA BKN050CB PROB30 TEMPO 1816/1818 VRB20G35KT 1200 TSRAGR=

    Metar: nil

  • Paris/Charles de Gaulle (LFPG)

    Taf: TAF LFPG 171100Z 1712/1818 11005KT 9999 SCT040 TX28/1815Z TN16/1805Z TEMPO 1721/1724 VRB02KT=

    Metar: nil

  • Paderborn/Lippstadt (EDLP)

    Taf: TAF EDLP 171100Z 1712/1812 09005KT CAVOK BECMG 1715/1718 15005KT=

    Metar: nil

  • Paris/Le Bourget (LFPB)

    Taf: TAF LFPB 171100Z 1712/1812 11005KT 9999 SCT040 TEMPO 1721/1724 VRB02KT=

    Metar: METAR LFPB 171630Z AUTO 10006KT 060V140 CAVOK 25/12 Q1016 NOSIG=

  • Rotterdam (EHRD)

    Taf: TAF EHRD 171055Z 1712/1818 19012KT 9999 SCT035 BECMG 1715/1718 31007KT BECMG 1719/1722 VRB03KT CAVOK BECMG 1815/1818 06008KT=

    Metar: nil

  • Zürich/Kloten (LSZH)

    Taf: TAF LSZH 171425Z 1715/1821 05007KT 9999 FEW040 TX25/1715Z TN12/1804Z TX28/1815Z BECMG 1716/1719 VRB03KT CAVOK PROB40 1803/1806 4000 MIFG NSC BECMG 1809/1812 9999 FEW070 TEMPO 1813/1821 SCT060TCU PROB30 TEMPO 1816/1819 22013G26KT TSRA SCT060CB=

    Metar: METAR LSZH 171620Z 05007KT 020V090 9999 FEW048 25/14 Q1017 NOSIG=

  • Oostende/Intl (EBOS)

    Taf: TAF EBOS 171110Z 1712/1818 31008KT SCT030 PROB30 TEMPO 1815/1818 SHRA TSRA=

    Metar: nil

  • Paris/Orly (LFPO)

    Taf: TAF LFPO 171100Z 1712/1818 VRB05KT CAVOK BECMG 1807/1810 13008KT=

    Metar: nil

  • Beauvais (LFOB)

    Taf: TAF LFOB 171100Z 1712/1812 18003KT 9999 SCT040 BECMG 1717/1720 36010KT BECMG 1800/1803 06003KT=

    Metar: nil

  • Münster/Intl (EDDG)

    Taf: TAF EDDG 171100Z 1712/1812 16005KT CAVOK BECMG 1716/1718 VRB02KT BECMG 1809/1812 21005KT=

    Metar: METAR EDDG 171620Z 12004KT 050V220 CAVOK 27/12 Q1018 NOSIG=

  • Duebendorf (LSMD)

    Taf: TAF LSMD 171625Z 1717/1823 04006KT CAVOK PROB30 1803/1806 4000 MIFG NSC BECMG 1809/1812 9999 FEW070 TEMPO 1813/1821 SCT060TCU PROB30 TEMPO 1816/1819 22013G26KT TSRA SCT060CB=

    Metar: nil

  • Villacoublay (LFPV)

    Taf: TAF LFPV 171400Z 1715/1815 14005KT CAVOK=

    Metar: nil

  • Payerne (LSMP)

    Taf: TAF LSMP 171625Z 1717/1823 VRB03KT CAVOK=

    Metar: nil

  • Amsterdam/Schipol (EHAM)

    Taf: TAF EHAM 171055Z 1712/1818 19012KT 9999 SCT035 BECMG 1714/1717 31007KT BECMG 1719/1722 VRB03KT CAVOK BECMG 1815/1818 06008KT=

    Metar: METAR EHAM 171625Z 31006KT 280V360 9999 FEW042 23/15 Q1017 NOSIG=

  • Emmen (LSME)

    Taf: TAF LSME 171625Z 1717/1823 VRB03KT CAVOK PROB40 1803/1806 4000 MIFG NSC BECMG 1809/1812 9999 FEW070 TEMPO 1813/1821 SCT060TCU PROB30 TEMPO 1815/1820 23015G25KT TSRA SCT060CB=

    Metar: nil

  • Friedrichshafen (EDNY)

    Taf: TAF EDNY 171100Z 1712/1812 04010KT 9999 SCT030 BECMG 1719/1721 VRB03KT BECMG 1809/1811 23005KT=

    Metar: nil

  • Alpnach (LSMA)

    Taf: TAF LSMA 171625Z 1717/1823 06009KT CAVOK PROB30 1803/1806 4000 MIFG NSC BECMG 1809/1812 9999 FEW075 TEMPO 1813/1821 SCT060TCU PROB40 TEMPO 1815/1820 21015G25KT TSRA SCT060CB=

    Metar: nil

  • Meiringen (LSMM)

    Taf: TAF LSMM 171625Z 1717/1823 05010KT CAVOK PROB30 1803/1806 4000 MIFG NSC BECMG 1809/1812 9999 FEW075 TEMPO 1813/1821 SCT060TCU PROB40 TEMPO 1815/1820 25015G25KT TSRA SCT060CB=

    Metar: nil

  • Nürnberg (EDDN)

    Taf: TAF EDDN 171100Z 1712/1812 09005KT 9999 SCT040 BECMG 1718/1720 VRB03KT BECMG 1807/1809 12005KT=

    Metar: METAR EDDN 171620Z 09010KT CAVOK 25/12 Q1018 NOSIG=

  • Rouen (LFOP)

    Taf: TAF LFOP 171100Z 1712/1812 18006KT 9999 SCT040 BECMG 1715/1717 36010KT BECMG 1800/1803 06003KT=

    Metar: nil

  • Evreux (LFOE)

    Taf: TAF LFOE 171400Z 1715/1815 17005KT CAVOK TEMPO 1812/1815 3000 SHRA BKN030TCU PROB40 TEMPO 1813/1815 09020G35KT 2000 TSRAGS BKN025CB=

    Metar: nil

  • Erfurt/Bindersleben (EDDE)

    Taf: TAF EDDE 171100Z 1712/1812 09005KT CAVOK BECMG 1718/1720 19004KT BECMG 1806/1808 08005KT=

    Metar: nil